Playa Del Rey, California
Current Conditions -  °F | °C
As of 11:53 AM on Sunday 25 Jan 2015 (Local Time) from KLAX Reporting Station
Few Clouds Few Clouds  
Wind Chill: 77°   Ceiling: Unl
Heat Index: 77°   Visibility: 10mi
Dew Point: 27°   Wind: 0mph
Humidity: 16%   Direction: NA
Pressure: 30.01"   Gusts: NA
Location:  33.95°N, 118.44°W
Report Text: KLAX 251953Z 00000KT 10SM FEW200 25/M03 A3001 RMK AO2 SLP160 T02501028
Loading
Personal Weather Stations






























Interactive Weather Map New forecast layout! Learn more

10-Day Weather Forecast

Advertisements
Track Severe Weather on mobile